createdAt,value
2023-03-01T11:17:18.202Z,4.82
2023-03-01T11:28:46.742Z,5.38
2023-03-01T11:34:00.026Z,5.18
2023-03-01T11:39:16.146Z,4.70
2023-03-01T11:44:24.361Z,4.72
2023-03-01T11:49:47.146Z,2.97
2023-03-01T11:55:05.838Z,4.70
2023-03-01T12:00:25.172Z,2.17
2023-03-01T12:06:15.237Z,2.45
2023-03-01T12:11:30.750Z,4.07
2023-03-01T12:16:51.988Z,5.85
2023-03-01T12:22:19.282Z,4.57
2023-03-01T12:27:39.472Z,3.50
2023-03-01T12:32:58.755Z,2.80
2023-03-01T12:38:17.065Z,3.38
2023-03-01T12:43:33.256Z,2.00
2023-03-01T12:48:52.702Z,2.72
2023-03-01T12:54:00.762Z,4.00
2023-03-01T12:59:15.928Z,4.35
2023-03-01T13:04:44.181Z,6.70
2023-03-01T13:09:56.638Z,3.25
2023-03-01T13:14:59.777Z,2.75
2023-03-01T13:20:05.185Z,3.70
2023-03-01T13:25:20.805Z,3.45
2023-03-01T13:30:44.219Z,3.20
2023-03-01T13:35:47.505Z,3.50
2023-03-01T13:41:02.299Z,2.63
2023-03-01T13:46:13.006Z,3.78
2023-03-01T13:51:16.686Z,3.83
2023-03-01T13:56:27.442Z,3.20
2023-03-01T14:01:32.782Z,3.92
2023-03-01T14:06:38.477Z,2.90
2023-03-01T14:11:58.131Z,2.60
2023-03-01T14:17:16.326Z,2.80
2023-03-01T14:22:24.111Z,3.13
2023-03-01T14:27:33.668Z,4.78
2023-03-01T14:32:38.891Z,4.03
2023-03-01T14:37:44.042Z,3.72
2023-03-01T14:42:50.241Z,5.05
2023-03-01T14:47:56.469Z,4.80
2023-03-01T14:53:04.664Z,4.05
2023-03-01T14:58:15.998Z,7.15
2023-03-01T15:03:29.136Z,6.47
2023-03-01T15:08:37.837Z,4.33
2023-03-01T15:13:49.634Z,4.32
2023-03-01T15:18:59.768Z,4.43
2023-03-01T15:24:36.103Z,3.78
2023-03-01T15:29:43.317Z,3.78
2023-03-01T15:34:53.501Z,3.97
2023-03-01T15:39:59.694Z,5.60
2023-03-01T15:45:16.954Z,5.60
2023-03-01T15:50:25.179Z,3.00
2023-03-01T15:55:31.348Z,5.68
2023-03-01T16:00:44.052Z,4.47
2023-03-01T16:05:53.785Z,3.97
2023-03-01T16:10:57.978Z,5.05
2023-03-01T16:16:06.241Z,4.97
2023-03-01T16:21:13.438Z,4.35
2023-03-01T16:26:16.696Z,5.30
2023-03-01T16:31:22.398Z,3.90
2023-03-01T16:36:29.270Z,4.53
2023-03-01T16:41:33.016Z,6.30
2023-03-01T16:46:37.851Z,6.67
2023-03-01T16:51:41.009Z,7.60
2023-03-01T16:56:44.298Z,5.65
2023-03-01T17:01:48.919Z,10.52
2023-03-01T17:06:52.372Z,7.70
2023-03-01T17:11:56.023Z,9.95
2023-03-01T17:17:00.568Z,10.45
2023-03-01T17:22:04.043Z,8.98
2023-03-01T17:27:07.884Z,6.85
2023-03-01T17:32:12.687Z,11.13
2023-03-01T17:37:16.062Z,8.48
2023-03-01T17:42:19.322Z,9.15
2023-03-01T17:47:23.926Z,10.90
2023-03-01T17:52:27.267Z,10.60
2023-03-01T17:57:30.522Z,11.18
2023-03-01T18:02:35.245Z,9.20
2023-03-01T18:07:39.086Z,9.63
2023-03-01T18:12:42.328Z,8.77
2023-03-01T18:17:47.790Z,9.27
2023-03-01T18:22:53.006Z,8.90
2023-03-01T18:33:02.336Z,7.40
2023-03-01T18:38:06.109Z,7.97
2023-03-01T18:43:11.328Z,10.50
2023-03-01T18:53:20.415Z,14.30
2023-03-01T18:58:26.233Z,7.60
2023-03-01T19:10:00.548Z,9.73
2023-03-01T19:15:16.747Z,18.80
2023-03-01T19:21:03.351Z,14.35
2023-03-01T19:26:11.113Z,13.25
2023-03-01T19:31:17.349Z,13.13
2023-03-01T19:36:33.967Z,14.35
2023-03-01T19:41:37.402Z,12.00
2023-03-01T19:46:41.069Z,12.95
2023-03-01T19:51:45.776Z,9.75
2023-03-01T19:56:49.711Z,11.20
2023-03-01T20:01:53.124Z,9.25
2023-03-01T20:06:57.826Z,10.68
2023-03-01T20:12:01.079Z,10.75
2023-03-01T20:17:04.440Z,11.18
2023-03-01T20:22:17.729Z,13.35
2023-03-01T20:27:23.666Z,16.02
2023-03-01T20:37:52.112Z,10.95
2023-03-01T20:42:59.612Z,10.88
2023-03-01T20:48:03.772Z,9.68
2023-03-01T20:53:20.092Z,13.30
2023-03-01T20:58:26.469Z,12.50
2023-03-01T21:03:32.678Z,10.55
2023-03-01T21:08:38.784Z,15.82
2023-03-01T21:13:42.054Z,13.48
2023-03-01T21:18:45.163Z,15.68
2023-03-01T21:23:50.142Z,13.45
2023-03-01T21:28:57.828Z,16.10
2023-03-01T21:34:04.241Z,11.30
2023-03-01T21:39:09.027Z,13.65
2023-03-01T21:44:12.186Z,12.03
2023-03-01T21:49:15.380Z,12.90
2023-03-01T21:54:21.343Z,16.35
2023-03-01T21:59:25.457Z,17.00
2023-03-01T22:04:28.800Z,14.85
2023-03-01T22:09:35.125Z,13.77
2023-03-01T22:14:38.403Z,15.05
2023-03-01T22:19:41.770Z,12.45
2023-03-01T22:24:46.529Z,20.83
2023-03-01T22:29:49.832Z,18.10
2023-03-01T22:34:53.133Z,13.18
2023-03-01T22:39:58.541Z,13.57
2023-03-01T22:50:05.415Z,13.85
2023-03-01T22:55:11.317Z,16.33
2023-03-01T23:00:15.603Z,11.38
2023-03-01T23:05:19.237Z,11.37
2023-03-01T23:10:23.931Z,11.77
2023-03-01T23:15:27.300Z,14.70
2023-03-01T23:20:30.741Z,12.70
2023-03-01T23:25:35.523Z,10.93
2023-03-01T23:30:38.866Z,13.57
2023-03-01T23:35:42.159Z,13.32
2023-03-01T23:40:47.117Z,14.68
2023-03-01T23:45:54.896Z,11.80
2023-03-01T23:50:58.208Z,10.18
2023-03-01T23:56:03.885Z,13.45
